Time;durP1;ratioP1;P1;durP2;ratioP2;P2;SDS_P1;SDS_P2;PMS_P1;PMS_P2;Temp;Humidity;BMP_temperature;BMP_pressure;BME280_temperature;BME280_humidity;BME280_pressure;Samples;Min_cycle;Max_cycle;Signal;HPM_P1;HPM_P2
2023/07/30 05:52:04;;;;;;;0.63;0.63;;;27.30;99.90;;;;;;5512903;23;20250;-72
2023/07/30 05:54:31;;;;;;;0.80;0.80;;;27.60;99.90;;;;;;4995734;28;20210;-73
2023/07/30 05:56:58;;;;;;;0.88;0.88;;;27.50;99.90;;;;;;4995682;28;20202;-73
2023/07/30 05:59:24;;;;;;;0.80;0.80;;;27.50;99.90;;;;;;4995330;28;20665;-73
2023/07/30 06:01:52;;;;;;;1.15;0.70;;;27.20;99.90;;;;;;4995474;28;20230;-72
2023/07/30 06:04:19;;;;;;;0.70;0.70;;;27.20;99.90;;;;;;4995588;28;20296;-72
2023/07/30 06:06:46;;;;;;;0.90;0.90;;;26.80;99.90;;;;;;4995861;28;20210;-74
2023/07/30 06:09:14;;;;;;;1.10;1.10;;;26.80;99.90;;;;;;4994839;28;20205;-74
2023/07/30 06:11:41;;;;;;;1.00;1.00;;;26.60;99.90;;;;;;4995620;28;20222;-73
2023/07/30 06:14:07;;;;;;;0.88;0.88;;;26.50;99.90;;;;;;5018539;23;20226;-71
2023/07/30 06:16:34;;;;;;;0.50;0.50;;;25.90;99.90;;;;;;4995286;28;20202;-72
2023/07/30 06:19:01;;;;;;;0.80;0.80;;;25.50;99.90;;;;;;4995170;28;20222;-72
2023/07/30 06:21:27;;;;;;;1.13;1.02;;;24.90;99.90;;;;;;4995227;28;20205;-71
2023/07/30 06:23:54;;;;;;;0.80;0.80;;;24.30;99.90;;;;;;4995117;28;20253;-71
2023/07/30 06:26:22;;;;;;;1.02;0.88;;;23.70;99.90;;;;;;4995121;28;20206;-71
2023/07/30 06:28:51;;;;;;;1.10;1.10;;;22.40;99.90;;;;;;4994760;28;20665;-71
2023/07/30 06:31:20;;;;;;;0.98;0.98;;;21.90;99.90;;;;;;4995004;28;20207;-72
2023/07/30 06:33:47;;;;;;;1.08;0.98;;;21.90;99.90;;;;;;4994951;28;20237;-71
2023/07/30 06:36:16;;;;;;;1.00;1.00;;;;;;;;;;4994664;28;20213;-71
2023/07/30 06:38:47;;;;;;;1.00;1.00;;;;;;;;;;4995104;28;20229;-71
2023/07/30 06:41:15;;;;;;;1.80;0.80;;;;;;;;;;4995152;28;20194;-72
2023/07/30 06:43:43;;;;;;;2.92;0.80;;;;;;;;;;4994743;28;20319;-72
2023/07/30 06:46:10;;;;;;;0.77;0.77;;;28.00;99.90;;;;;;4994885;28;20206;-72
2023/07/30 06:48:37;;;;;;;0.68;0.68;;;29.40;99.90;;;;;;4994804;28;20203;-72
2023/07/30 06:51:07;;;;;;;0.60;0.60;;;30.60;99.90;;;;;;4994671;28;20202;-72
2023/07/30 06:53:33;;;;;;;0.60;0.60;;;31.40;99.90;;;;;;4994600;28;20206;-72
2023/07/30 06:56:00;;;;;;;0.60;0.60;;;31.90;97.00;;;;;;4994649;28;20206;-72
2023/07/30 06:58:27;;;;;;;0.50;0.50;;;32.60;97.20;;;;;;4994282;28;20612;-72
2023/07/30 07:00:55;;;;;;;0.60;0.60;;;33.80;92.80;;;;;;4994573;28;20210;-73
2023/07/30 07:03:22;;;;;;;0.60;0.60;;;34.50;90.30;;;;;;4994570;28;20225;-72
2023/07/30 07:05:54;;;;;;;0.55;0.55;;;35.30;82.90;;;;;;4994145;28;20226;-72
2023/07/30 07:08:21;;;;;;;0.55;0.55;;;35.90;79.30;;;;;;4994472;28;20237;-72
2023/07/30 07:10:47;;;;;;;0.50;0.50;;;36.00;80.50;;;;;;4994118;28;20213;-72
2023/07/30 07:13:15;;;;;;;0.45;0.45;;;;;;;;;;4994376;28;20289;-72
2023/07/30 07:15:42;;;;;;;0.40;0.40;;;;;;;;;;4994144;28;20237;-72
2023/07/30 07:18:10;;;;;;;0.40;0.40;;;;;;;;;;4993935;28;20650;-72
2023/07/30 07:20:38;;;;;;;0.40;0.40;;;;;;;;;;4993972;28;20677;-72
2023/07/30 07:23:05;;;;;;;0.30;0.30;;;;;;;;;;4994184;28;20198;-72
2023/07/30 07:25:32;;;;;;;0.40;0.40;;;;;;;;;;4994204;28;20223;-72
2023/07/30 07:27:59;;;;;;;0.55;0.55;;;;;;;;;;4994178;28;20202;-72
2023/07/30 07:30:26;;;;;;;0.45;0.45;;;;;;;;;;4994104;28;20205;-72
2023/07/30 07:32:55;;;;;;;0.40;0.40;;;;;;;;;;4994166;28;20210;-72
2023/07/30 07:35:23;;;;;;;0.50;0.50;;;;;;;;;;4994150;28;20217;-73
2023/07/30 07:37:50;;;;;;;0.50;0.50;;;;;;;;;;4994230;28;20202;-73
2023/07/30 07:40:17;;;;;;;0.40;0.40;;;;;;;;;;4994166;28;20202;-72
2023/07/30 07:42:44;;;;;;;0.55;0.55;;;;;;;;;;4994144;28;20209;-73
2023/07/30 07:45:11;;;;;;;0.68;0.68;;;;;;;;;;4994084;28;20233;-71
2023/07/30 07:47:38;;;;;;;0.70;0.70;;;;;;;;;;4994299;28;20202;-72
2023/07/30 07:50:06;;;;;;;0.63;0.63;;;;;;;;;;4994232;28;20209;-72
2023/07/30 07:52:34;;;;;;;0.50;0.50;;;;;;;;;;4993976;28;20213;-71
2023/07/30 07:55:02;;;;;;;0.52;0.52;;;;;;;;;;4993584;28;20254;-71
2023/07/30 07:57:30;;;;;;;0.82;0.82;;;;;;;;;;4993995;28;20233;-71
2023/07/30 07:59:58;;;;;;;0.60;0.60;;;;;;;;;;4993858;28;20253;-71
2023/07/30 08:02:25;;;;;;;0.77;0.77;;;;;;;;;;4993504;28;20688;-70
2023/07/30 08:04:52;;;;;;;0.80;0.80;;;;;;;;;;4993657;28;20221;-70
2023/07/30 08:07:19;;;;;;;0.80;0.80;;;;;;;;;;4994097;28;20244;-70
2023/07/30 08:09:47;;;;;;;0.80;0.80;;;;;;;;;;4993913;28;20209;-71
2023/07/30 08:12:15;;;;;;;0.80;0.80;;;;;;;;;;4994123;28;20280;-70
2023/07/30 08:14:42;;;;;;;0.73;0.73;;;;;;;;;;4993604;28;20276;-70
2023/07/30 08:17:09;;;;;;;0.73;0.73;;;;;;;;;;4993800;28;20210;-70
2023/07/30 08:19:36;;;;;;;0.80;0.80;;;;;;;;;;4993432;28;20689;-69
2023/07/30 08:22:03;;;;;;;0.88;0.60;;;;;;;;;;4993707;28;20213;-70
2023/07/30 08:24:30;;;;;;;0.60;0.60;;;;;;;;;;4993720;28;20222;-70
2023/07/30 08:26:58;;;;;;;0.70;0.70;;;;;;;;;;4993827;28;20213;-70
2023/07/30 08:29:25;;;;;;;0.65;0.65;;;;;;;;;;4993700;28;20206;-70
2023/07/30 08:31:52;;;;;;;0.57;0.57;;;;;;;;;;4995090;28;20210;-70
2023/07/30 08:34:19;;;;;;;0.50;0.50;;;;;;;;;;4997098;28;20601;-71
2023/07/30 08:36:46;;;;;;;0.47;0.47;;;;;;;;;;4997157;28;20549;-71
2023/07/30 08:39:13;;;;;;;0.75;0.75;;;;;;;;;;4997274;28;20222;-71
2023/07/30 08:41:40;;;;;;;0.65;0.65;;;;;;;;;;4997297;28;20209;-71
2023/07/30 08:44:10;;;;;;;0.52;0.52;;;;;;;;;;4997202;28;20247;-71
2023/07/30 08:46:37;;;;;;;0.80;0.80;;;;;;;;;;4997739;28;20202;-70
2023/07/30 08:49:04;;;;;;;0.73;0.73;;;;;;;;;;4997321;28;20202;-71
2023/07/30 08:51:33;;;;;;;0.60;0.60;;;;;;;;;;4997418;28;20186;-70
2023/07/30 08:54:01;;;;;;;0.80;0.80;;;;;;;;;;4996825;28;20229;-70
2023/07/30 08:56:29;;;;;;;0.80;0.80;;;;;;;;;;4997161;28;20202;-70
2023/07/30 08:58:59;;;;;;;1.40;0.90;;;;;;;;;;4996437;28;20715;-70
2023/07/30 09:01:31;;;;;;;0.80;0.80;;;;;;;;;;4996890;28;20208;-70
2023/07/30 09:04:00;;;;;;;0.73;0.73;;;;;;;;;;4996658;28;20280;-70
2023/07/30 09:06:27;;;;;;;0.90;0.90;;;;;;;;;;4996768;28;20233;-70
2023/07/30 09:08:54;;;;;;;0.68;0.68;;;;;;;;;;4996547;28;20204;-70
2023/07/30 09:11:21;;;;;;;1.15;1.15;;;;;;;;;;4996494;28;20203;-70
2023/07/30 09:13:48;;;;;;;1.00;0.90;;;;;;;;;;4996081;28;20225;-70
2023/07/30 09:16:16;;;;;;;1.65;0.77;;;;;;;;;;4996309;28;20187;-70
2023/07/30 09:18:45;;;;;;;1.35;0.90;;;;;;;;;;4996197;28;20226;-70
2023/07/30 09:21:12;;;;;;;0.80;0.80;;;;;;;;;;4996167;28;20209;-70
2023/07/30 09:23:42;;;;;;;1.05;1.00;;;;;;;;;;4996098;28;20209;-70
2023/07/30 09:26:09;;;;;;;0.98;0.98;;;;;;;;;;4995792;28;20636;-70
2023/07/30 09:28:37;;;;;;;0.98;0.98;;;;;;;;;;4996120;28;20202;-70
2023/07/30 09:31:04;;;;;;;1.00;1.00;;;;;;;;;;4996096;28;20613;-70
2023/07/30 09:33:32;;;;;;;1.00;1.00;;;;;;;;;;4995981;28;20202;-70
2023/07/30 09:36:02;;;;;;;0.95;0.90;;;;;;;;;;4996095;28;20290;-70
2023/07/30 09:38:32;;;;;;;0.93;0.93;;;;;;;;;;4995608;28;20595;-70
2023/07/30 09:41:01;;;;;;;1.42;1.10;;;;;;;;;;4996947;28;20233;-68
2023/07/30 09:43:30;;;;;;;1.00;1.00;;;;;;;;;;4994809;28;20213;-69
2023/07/30 09:46:02;;;;;;;0.90;0.90;;;;;;;;;;4995892;28;20241;-69
2023/07/30 09:48:30;;;;;;;1.20;1.20;;;;;;;;;;4995882;28;20190;-70
2023/07/30 09:50:57;;;;;;;0.95;0.95;;;;;;;;;;4995817;28;20608;-75
2023/07/30 09:53:26;;;;;;;1.10;1.10;;;;;;;;;;4996053;28;20206;-71
2023/07/30 09:55:53;;;;;;;2.13;0.82;;;;;;;;;;4995422;28;20751;-70
2023/07/30 09:58:20;;;;;;;1.25;0.85;;;;;;;;;;4995594;28;20206;-70
2023/07/30 10:00:48;;;;;;;0.82;0.82;;;;;;;;;;4995638;28;20206;-71
2023/07/30 10:03:16;;;;;;;1.00;1.00;;;;;;;;;;4995527;28;20213;-71
2023/07/30 10:05:45;;;;;;;1.13;1.13;;;;;;;;;;4995197;28;20783;-71
2023/07/30 10:08:15;;;;;;;1.33;1.27;;;;;;;;;;4995682;28;20202;-72
2023/07/30 10:10:44;;;;;;;1.75;1.13;;;;;;;;;;4995587;28;20194;-72
2023/07/30 10:13:12;;;;;;;1.20;1.20;;;;;;;;;;4995182;28;20568;-71
2023/07/30 10:15:40;;;;;;;1.25;1.25;;;;;;;;;;4995362;28;20736;-70
2023/07/30 10:18:07;;;;;;;1.20;1.20;;;;;;;;;;4995482;28;20206;-71
2023/07/30 10:20:34;;;;;;;1.00;1.00;;;;;;;;;;4995519;28;20222;-71
2023/07/30 10:23:01;;;;;;;1.25;1.10;;;;;;;;;;4995321;28;20205;-71
2023/07/30 10:25:30;;;;;;;0.93;0.93;;;;;;;;;;4994839;28;20721;-71
2023/07/30 10:28:01;;;;;;;1.25;1.20;;;;;;;;;;4995195;28;20568;-71
2023/07/30 10:30:31;;;;;;;1.00;1.00;;;;;;;;;;4995060;28;20218;-71
2023/07/30 10:33:00;;;;;;;1.23;1.23;;;;;;;;;;4995355;28;20187;-71
2023/07/30 10:35:37;;;;;;;0.95;0.95;;;;;;;;;;4994911;28;20230;-71
2023/07/30 10:38:13;;;;;;;1.30;1.20;;;;;;;;;;4995110;28;20201;-71
2023/07/30 10:40:40;;;;;;;1.10;1.10;;;;;;;;;;4994641;28;20551;-72
2023/07/30 10:43:16;;;;;;;0.90;0.90;;;;;;;;;;4996169;28;20207;-72
2023/07/30 10:45:50;;;;;;;1.30;1.30;;;;;;;;;;4995934;28;20225;-73
2023/07/30 10:48:17;;;;;;;0.95;0.95;;;;;;;;;;4994944;28;20218;-71
2023/07/30 10:50:48;;;;;;;1.02;1.02;;;;;;;;;;4994882;28;20202;-72
2023/07/30 10:53:15;;;;;;;2.75;1.20;;;;;;;;;;4994542;28;20183;-72
2023/07/30 10:55:42;;;;;;;1.08;1.08;;;;;;;;;;4994372;28;20222;-72
2023/07/30 10:58:09;;;;;;;0.90;0.90;;;;;;;;;;4994876;28;20229;-72
2023/07/30 11:00:38;;;;;;;1.20;1.20;;;;;;;;;;4994713;28;20226;-71
2023/07/30 11:03:05;;;;;;;1.10;1.10;;;;;;;;;;4994338;28;20208;-71
2023/07/30 11:05:32;;;;;;;1.10;1.10;;;;;;;;;;4994354;28;20229;-71
2023/07/30 11:07:59;;;;;;;1.00;1.00;;;;;;;;;;4994632;28;20209;-70
2023/07/30 11:10:26;;;;;;;1.20;1.20;;;;;;;;;;4994878;28;20202;-71
2023/07/30 11:12:53;;;;;;;1.30;1.30;;;;;;;;;;4994726;28;20598;-70
2023/07/30 11:15:21;;;;;;;1.33;1.23;;;;;;;;;;4994389;28;20226;-70
2023/07/30 11:17:49;;;;;;;1.17;1.08;;;;;;;;;;4994504;28;20202;-70
2023/07/30 11:20:26;;;;;;;2.17;1.05;;;;;;;;;;4994253;28;20724;-70
2023/07/30 11:22:53;;;;;;;1.30;1.30;;;;;;;;;;4995451;28;20198;-71
2023/07/30 11:25:21;;;;;;;1.15;1.15;;;;;;;;;;4994522;28;20229;-70
2023/07/30 11:27:48;;;;;;;1.08;1.08;;;;;;;;;;4994286;28;20202;-70
2023/07/30 11:30:15;;;;;;;0.90;0.90;;;;;;;;;;4994179;28;20205;-70
2023/07/30 11:32:44;;;;;;;1.30;1.30;;;;;;;;;;4994099;28;20206;-70
2023/07/30 11:35:13;;;;;;;1.17;1.17;;;;;;;;;;4994084;28;20280;-70
2023/07/30 11:37:42;;;;;;;1.20;1.20;;;;;;;;;;4994060;28;20202;-70
2023/07/30 11:40:09;;;;;;;1.20;1.20;;;;;;;;;;4994100;28;20226;-71
2023/07/30 11:42:37;;;;;;;1.00;1.00;;;;;;;;;;4994014;28;20202;-71
2023/07/30 11:45:20;;;;;;;0.98;0.98;;;;;;;;;;4993749;28;20733;-71
2023/07/30 11:47:47;;;;;;;1.25;1.20;;;;;;;;;;4994109;28;20190;-71
2023/07/30 11:50:16;;;;;;;1.10;1.10;;;;;;;;;;4994494;28;20198;-71
2023/07/30 11:52:52;;;;;;;1.25;1.15;;;;;;;;;;4995186;28;20198;-70
2023/07/30 11:55:20;;;;;;;1.25;1.20;;;;;;;;;;5006120;28;20225;-70
2023/07/30 11:57:47;;;;;;;1.35;1.35;;;;;;;;;;5005289;28;20206;-71
2023/07/30 12:00:14;;;;;;;0.95;0.95;;;;;;;;;;4994306;28;20217;-71
2023/07/30 12:02:42;;;;;;;1.00;1.00;;;;;;;;;;4993941;28;20198;-71
2023/07/30 12:05:12;;;;;;;1.27;1.27;;;;;;;;;;4993821;28;20225;-71
2023/07/30 12:07:42;;;;;;;1.02;1.02;;;;;;;;;;4996308;28;20642;-70
2023/07/30 12:10:10;;;;;;;1.38;1.27;;;;;;;;;;4997415;28;20241;-70
2023/07/30 12:12:37;;;;;;;1.10;1.10;;;;;;;;;;4997819;28;20210;-71
2023/07/30 12:15:11;;;;;;;1.10;1.10;;;;;;;;;;5020572;23;20237;-74
2023/07/30 12:17:39;;;;;;;1.20;1.20;;;;;;;;;;4997864;28;20239;-75
2023/07/30 12:20:06;;;;;;;1.23;1.13;;;;;;;;;;4997641;28;20253;-74
2023/07/30 12:22:34;;;;;;;1.00;1.00;;;;;;;;;;4997548;28;20239;-76
2023/07/30 12:25:04;;;;;;;0.98;0.98;;;;;;;;;;4997522;28;20592;-75
2023/07/30 12:27:31;;;;;;;0.93;0.93;;;;;;;;;;4997573;28;20202;-75
2023/07/30 12:29:58;;;;;;;1.00;1.00;;;;;;;;;;4997539;28;20198;-74
2023/07/30 12:32:28;;;;;;;1.02;1.02;;;;;;;;;;4997338;28;20217;-74
2023/07/30 12:34:55;;;;;;;1.40;1.30;;;;;;;;;;4997170;28;20226;-74
2023/07/30 12:37:22;;;;;;;1.20;1.20;;;;;;;;;;4997502;28;20233;-75
2023/07/30 12:39:49;;;;;;;0.95;0.95;;;;;;;;;;4997228;28;20222;-75
2023/07/30 12:42:17;;;;;;;1.10;1.10;;;;;;;;;;4997093;28;20206;-75
2023/07/30 12:44:45;;;;;;;1.10;1.10;;;;;;;;;;4997024;28;20249;-75
2023/07/30 12:47:12;;;;;;;1.27;1.27;;;;;;;;;;4996880;28;20553;-75
2023/07/30 12:49:39;;;;;;;1.10;1.10;;;;;;;;;;4996949;28;20665;-76
2023/07/30 12:52:06;;;;;;;2.10;1.35;;;;;;;;;;4997116;28;20209;-75
2023/07/30 12:54:33;;;;;;;0.98;0.98;;;;;;;;;;4996947;28;20226;-75
2023/07/30 12:57:00;;;;;;;1.83;0.90;;;;;;;;;;4996713;28;20549;-75
2023/07/30 12:59:28;;;;;;;0.93;0.93;;;;;;;;;;4997048;28;20202;-75
2023/07/30 13:01:56;;;;;;;1.20;1.20;;;;;;;;;;4997085;28;20312;-75
2023/07/30 13:04:23;;;;;;;1.10;1.10;;;;;;;;;;4996853;28;20229;-74
2023/07/30 13:06:50;;;;;;;1.10;1.10;;;;;;;;;;4997376;28;20206;-75
2023/07/30 13:09:17;;;;;;;0.93;0.93;;;;;;;;;;4997312;28;20213;-76
2023/07/30 13:11:44;;;;;;;1.15;1.15;;;;;;;;;;4996904;28;20573;-75
2023/07/30 13:14:11;;;;;;;0.90;0.90;;;;;;;;;;4996350;28;20721;-74
2023/07/30 13:16:39;;;;;;;1.15;1.15;;;;;;;;;;4997307;28;20189;-75
2023/07/30 13:19:06;;;;;;;1.23;1.10;;;;;;;;;;4996967;28;20202;-75
2023/07/30 13:21:33;;;;;;;0.93;0.93;;;;;;;;;;4996791;28;20697;-76
2023/07/30 13:24:00;;;;;;;1.50;1.40;;;;;;;;;;4996816;28;20206;-74
2023/07/30 13:26:27;;;;;;;1.10;1.10;;;;;;;;;;4997107;28;20202;-75
2023/07/30 13:28:54;;;;;;;1.08;1.00;;;;;;;;;;4996643;28;20198;-75
2023/07/30 13:31:21;;;;;;;1.30;1.20;;;;;;;;;;4996563;28;20209;-75
2023/07/30 13:33:51;;;;;;;0.82;0.82;;;;;;;;;;4996646;28;20205;-73
2023/07/30 13:36:18;;;;;;;1.20;1.20;;;;;;;;;;4996947;28;20203;-74
2023/07/30 13:38:45;;;;;;;1.05;1.05;;;;;;;;;;4996844;28;20210;-75
2023/07/30 13:41:12;;;;;;;1.02;1.00;;;;;;;;;;4996374;28;20701;-74
2023/07/30 13:43:39;;;;;;;1.30;1.30;;;;;;;;;;4996450;28;20212;-75
2023/07/30 13:46:06;;;;;;;2.15;1.00;;;;;;;;;;4996532;28;20321;-75
2023/07/30 13:48:33;;;;;;;1.08;1.08;;;;;;;;;;4996356;28;20569;-75
2023/07/30 13:51:02;;;;;;;1.50;1.40;;;;;;;;;;4996477;28;20568;-75
2023/07/30 13:53:29;;;;;;;1.23;1.20;;;;;;;;;;4996444;28;20301;-75
2023/07/30 13:55:56;;;;;;;1.30;1.20;;;;;;;;;;4996355;28;20249;-75
2023/07/30 13:58:23;;;;;;;1.38;1.30;;;;;;;;;;4996279;28;20670;-75
2023/07/30 14:00:50;;;;;;;1.35;1.35;;;;;;;;;;4996029;28;20273;-76
2023/07/30 14:03:17;;;;;;;1.40;1.40;;;;;;;;;;4996214;28;20198;-75
2023/07/30 14:05:44;;;;;;;1.27;1.25;;;;;;;;;;4996495;28;20222;-75
2023/07/30 14:08:13;;;;;;;3.35;1.27;;;;;;;;;;4997068;28;20213;-75
2023/07/30 14:10:40;;;;;;;1.40;1.30;;;;;;;;;;4996966;28;20221;-75
2023/07/30 14:13:07;;;;;;;1.25;1.20;;;;;;;;;;4997184;28;20666;-75
2023/07/30 14:15:34;;;;;;;1.00;1.00;;;;;;;;;;4998316;28;20237;-75
2023/07/30 14:18:01;;;;;;;1.75;1.42;;;;;;;;;;4995231;28;20704;-75
2023/07/30 14:20:28;;;;;;;1.13;1.13;;;;;;;;;;4995263;28;20218;-75
2023/07/30 14:22:55;;;;;;;1.20;1.10;;;;;;;;;;4995640;28;20198;-75
2023/07/30 14:25:24;;;;;;;1.63;1.30;;;;;;;;;;4995202;28;20226;-74
2023/07/30 14:27:51;;;;;;;1.13;1.13;;;;;;;;;;4995308;28;20241;-74
2023/07/30 14:30:18;;;;;;;1.08;1.08;;;;;;;;;;4994643;28;20198;-74
2023/07/30 14:32:45;;;;;;;1.40;1.30;;;;;;;;;;4995193;28;20210;-74
2023/07/30 14:35:12;;;;;;;1.90;1.40;;;;;;;;;;4995072;28;20230;-74
2023/07/30 14:37:39;;;;;;;1.15;1.15;;;;;;;;;;4995195;28;20576;-74
2023/07/30 14:40:07;;;;;;;1.50;1.40;;;;;;;;;;4995043;28;20225;-75
2023/07/30 14:42:35;;;;;;;0.98;0.98;;;;;;;;;;4995039;28;20209;-75
2023/07/30 14:45:03;;;;;;;1.50;1.40;;;;;;;;;;4994985;28;20729;-75
2023/07/30 14:47:30;;;;;;;1.83;1.70;;;;;;;;;;4994722;28;20202;-75
2023/07/30 14:49:57;;;;;;;1.30;1.27;;;;;;;;;;4994946;28;20205;-75
2023/07/30 14:52:24;;;;;;;1.80;1.33;;;;;;;;;;4994881;28;20213;-74
2023/07/30 14:54:51;;;;;;;1.50;1.50;;;;;;;;;;4994941;28;20233;-74
2023/07/30 14:57:18;;;;;;;1.42;1.40;;;;;;;;;;4994853;28;20206;-74
2023/07/30 14:59:46;;;;;;;1.50;1.40;;;;;;;;;;4994440;28;20562;-74
2023/07/30 15:02:14;;;;;;;1.65;1.55;;;;;;;;;;4994723;28;20237;-74
2023/07/30 15:04:41;;;;;;;1.42;1.42;;;;;;;;;;4994634;28;20646;-74
2023/07/30 15:07:08;;;;;;;1.40;1.30;;;;;;;;;;4994431;28;20206;-74
2023/07/30 15:09:36;;;;;;;1.40;1.40;;;;;;;;;;4994574;28;20226;-74
2023/07/30 15:12:04;;;;;;;1.65;1.65;;;;;;;;;;4994670;28;20210;-74
2023/07/30 15:14:31;;;;;;;2.00;1.58;;;;;;;;;;4994408;28;20238;-73
2023/07/30 15:16:59;;;;;;;1.30;1.30;;;;;;;;;;4994613;28;20638;-74
2023/07/30 15:19:26;;;;;;;1.60;1.50;;;;;;;;;;4994606;28;20228;-75
2023/07/30 15:21:54;;;;;;;1.48;1.38;;;;;;;;;;4994302;28;20226;-73
2023/07/30 15:24:21;;;;;;;2.55;1.33;;;;;;;;;;4994505;28;20233;-73
2023/07/30 15:26:48;;;;;;;1.67;1.38;;;;;;;;;;4994525;28;20206;-74
2023/07/30 15:29:15;;;;;;;1.95;1.85;;;;;;;;;;4994923;28;20202;-74
2023/07/30 15:31:42;;;;;;;1.40;1.40;;;;;;;;;;5005704;28;20198;-74
2023/07/30 15:34:11;;;;;;;1.52;1.38;;;;;;;;;;5003348;28;20221;-74
2023/07/30 15:36:38;;;;;;;1.42;1.33;;;;;;;;;;4995634;28;20206;-73
2023/07/30 15:39:05;;;;;;;1.45;1.45;;;;;;;;;;4995074;28;20202;-74
2023/07/30 15:41:33;;;;;;;1.63;1.52;;;;;;;;;;4995161;28;20275;-73
2023/07/30 15:44:00;;;;;;;1.88;1.77;;;;;;;;;;4998374;28;20228;-73
2023/07/30 15:46:27;;;;;;;3.20;1.70;;;;;;;;;;4998570;28;20285;-74
2023/07/30 15:48:54;;;;;;;2.00;1.90;;;;;;;;;;4998536;28;20224;-74
2023/07/30 15:51:23;;;;;;;1.20;1.20;;;;;;;;;;4998045;28;20205;-74
2023/07/30 15:53:51;;;;;;;2.15;1.52;;;;;;;;;;4998388;28;20202;-73
2023/07/30 15:56:18;;;;;;;1.55;1.45;;;;;;;;;;4998245;28;20256;-73
2023/07/30 15:58:45;;;;;;;1.40;1.30;;;;;;;;;;4997904;28;20212;-74
2023/07/30 16:01:12;;;;;;;1.42;1.33;;;;;;;;;;4998296;28;20218;-73
2023/07/30 16:03:39;;;;;;;1.50;1.40;;;;;;;;;;4998085;28;20198;-74
2023/07/30 16:06:06;;;;;;;1.25;1.25;;;;;;;;;;4997929;28;20222;-72
2023/07/30 16:08:36;;;;;;;2.38;1.00;;;;;;;;;;4997751;28;20206;-75
2023/07/30 16:11:03;;;;;;;1.50;1.40;;;;;;;;;;4998171;28;20201;-75
2023/07/30 16:13:30;;;;;;;1.40;1.30;;;;;;;;;;4997998;28;20202;-76
2023/07/30 16:15:57;;;;;;;1.10;1.00;;;;;;;;;;4997758;28;20233;-75
2023/07/30 16:18:24;;;;;;;1.38;1.20;;;;;;;;;;4997651;28;20210;-74
2023/07/30 16:21:01;;;;;;;1.30;1.20;;;;;;;;;;4997591;28;20291;-74
2023/07/30 16:23:28;;;;;;;1.25;1.23;;;;;;;;;;4997488;28;20554;-74
2023/07/30 16:25:56;;;;;;;1.83;1.60;;;;;;;;;;4997469;28;20222;-74
2023/07/30 16:28:24;;;;;;;3.20;1.30;;;;;;;;;;4997790;28;20206;-74
2023/07/30 16:30:51;;;;;;;1.27;1.02;;;;;;;;;;4997294;28;20653;-72
2023/07/30 16:33:19;;;;;;;1.80;1.38;;;;;;;;;;4997791;28;20194;-73
2023/07/30 16:35:48;;;;;;;1.40;1.40;;;;;;;;;;4996872;28;20231;-73
2023/07/30 16:38:15;;;;;;;1.20;1.20;;;;;;;;;;4997446;28;20198;-73
2023/07/30 16:40:42;;;;;;;1.42;1.35;;;;;;;;;;4997362;28;20225;-73
2023/07/30 16:43:11;;;;;;;1.15;1.15;;;;;;;;;;4997236;28;20206;-74
2023/07/30 16:45:38;;;;;;;1.23;1.23;;;;;;;;;;4997027;28;20557;-74
2023/07/30 16:48:05;;;;;;;1.67;1.40;;;;;;;;;;4997330;28;20229;-73
2023/07/30 16:50:32;;;;;;;2.53;2.08;;;;;;;;;;4997297;28;20210;-72
2023/07/30 16:53:00;;;;;;;1.90;1.80;;;;;;;;;;4996896;28;20206;-72
2023/07/30 16:55:31;;;;;;;2.65;1.60;;;;;;;;;;4997145;28;20222;-71
2023/07/30 16:57:58;;;;;;;1.27;1.20;;;;;;;;;;4997595;28;20218;-71
2023/07/30 17:00:26;;;;;;;1.48;1.10;;;;;;;;;;4997276;28;20206;-71
2023/07/30 17:02:54;;;;;;;1.27;1.17;;;;;;;;;;4996923;28;20229;-70
2023/07/30 17:05:21;;;;;;;0.90;0.90;;;;;;;;;;4996848;28;20230;-69
2023/07/30 17:07:48;;;;;;;1.40;1.10;;;;;;;;;;4996871;28;20209;-70
2023/07/30 17:10:15;;;;;;;1.58;1.20;;;;;;;;;;4996519;28;20693;-69
2023/07/30 17:12:42;;;;;;;1.48;1.23;;;;;;;;;;4996529;28;20198;-69
2023/07/30 17:15:10;;;;;;;1.23;1.10;;;;;;;;;;4996241;28;20281;-70
2023/07/30 17:17:38;;;;;;;1.10;1.02;;;;;;;;;;4996468;28;20199;-70
2023/07/30 17:20:06;;;;;;;0.82;0.82;;;;;;;;;;4996503;28;20214;-69
2023/07/30 17:22:33;;;;;;;1.60;1.30;;;;;;;;;;4996451;28;20280;-70
2023/07/30 17:25:01;;;;;;;1.60;1.40;;;;;;;;;;4997168;28;20253;-72
2023/07/30 17:27:28;;;;;;;1.17;1.10;;;;;;;;;;4996558;28;20248;-71
2023/07/30 17:29:58;;;;;;;1.00;0.90;;;;;;;;;;4996196;28;20569;-70
2023/07/30 17:32:25;;;;;;;1.27;1.23;;;;;;;;;;4996311;28;20567;-70
2023/07/30 17:34:53;;;;;;;1.70;0.85;;;;;;;;;;4996296;28;20222;-70
2023/07/30 17:37:20;;;;;;;0.95;0.95;;;;;;;;;;4996364;28;20213;-70
2023/07/30 17:39:47;;;;;;;1.17;1.05;;;;;;;;;;4996204;28;20202;-69
2023/07/30 17:42:14;;;;;;;1.27;1.17;;;;;;;;;;4996293;28;20226;-70
2023/07/30 17:44:41;;;;;;;0.93;0.93;;;;;;;;;;4996208;28;20230;-71
2023/07/30 17:47:08;;;;;;;1.10;1.10;;;;;;;;;;4996049;28;20684;-70
2023/07/30 17:49:35;;;;;;;0.85;0.85;;;;;;;;;;4995989;28;20206;-70
2023/07/30 17:52:04;;;;;;;1.45;0.80;;;;;;;;;;4996041;28;20205;-71
2023/07/30 17:54:32;;;;;;;2.28;1.05;;;;;;;;;;4996086;28;20563;-72
2023/07/30 17:56:59;;;;;;;0.90;0.90;;;;;;;;;;4995839;28;20657;-70
2023/07/30 17:59:26;;;;;;;1.00;1.00;;;;;;;;;;4996007;28;20198;-72
2023/07/30 18:01:54;;;;;;;1.38;0.90;;;;;;;;;;4995916;28;20229;-71
2023/07/30 18:04:21;;;;;;;1.15;1.15;;;;;;;;;;4995140;28;20227;-71
2023/07/30 18:06:48;;;;;;;0.90;0.90;;;;;;;;;;4996599;28;20229;-70
2023/07/30 18:09:17;;;;;;;1.30;1.20;;;;;;;;;;4995855;28;20202;-70
2023/07/30 18:11:44;;;;;;;2.35;1.00;;;;;;;;;;4995587;28;20293;-71
2023/07/30 18:16:40;;;;;;;1.08;0.95;;;;;;;;;;4974868;28;20266;-69
2023/07/30 18:19:07;;;;;;;1.10;1.10;;;;;;;;;;4976260;28;20198;-71
2023/07/30 18:21:34;;;;;;;0.88;0.88;;;;;;;;;;4976361;28;20211;-72
2023/07/30 18:24:01;;;;;;;1.00;1.00;;;;;;;;;;4976187;28;20210;-72
2023/07/30 18:26:29;;;;;;;1.00;1.00;;;;;;;;;;4976175;28;20227;-75
2023/07/30 18:28:56;;;;;;;0.80;0.80;;;;;;;;;;4976150;28;20628;-72
2023/07/30 18:31:23;;;;;;;0.90;0.90;;;;;;;;;;4976194;28;20203;-71
2023/07/30 18:33:50;;;;;;;0.73;0.70;;;;;;;;;;4975937;28;20202;-69
2023/07/30 18:36:17;;;;;;;0.80;0.80;;;;;;;;;;4976755;28;20230;-69
2023/07/30 18:38:44;;;;;;;0.90;0.90;;;;;;;;;;4976002;28;20211;-70
2023/07/30 18:41:11;;;;;;;0.75;0.68;;;;;;;;;;4975523;28;20574;-71
2023/07/30 18:43:40;;;;;;;0.70;0.70;;;;;;;;;;4975666;28;20202;-72
2023/07/30 18:46:07;;;;;;;0.73;0.73;;;;;;;;;;4976076;28;20218;-71
2023/07/30 18:48:35;;;;;;;1.10;1.00;;;;;;;;;;4975988;28;20213;-71
2023/07/30 18:51:02;;;;;;;0.63;0.63;;;;;;;;;;4975924;28;20206;-70
2023/07/30 18:53:29;;;;;;;0.88;0.88;;;;;;;;;;4975467;28;20290;-72
2023/07/30 18:55:56;;;;;;;1.50;1.20;;;;;;;;;;4975475;28;20219;-72
2023/07/30 18:58:23;;;;;;;1.42;1.10;;;;;;;;;;4975536;28;20218;-72
2023/07/30 19:00:52;;;;;;;0.80;0.80;;;;;;;;;;4975593;28;20210;-74
2023/07/30 19:03:19;;;;;;;0.80;0.80;;;;;;;;;;4975325;28;20223;-73
2023/07/30 19:05:52;;;;;;;0.75;0.75;;;;;;;;;;4975353;28;20246;-72
2023/07/30 19:08:20;;;;;;;0.85;0.85;;;;;;;;;;4975039;28;20243;-71
2023/07/30 19:10:48;;;;;;;0.90;0.90;;;;;;;;;;4975430;28;20207;-70
2023/07/30 19:13:15;;;;;;;0.60;0.60;;;;;;;;;;4975328;28;20206;-71
2023/07/30 19:15:42;;;;;;;0.75;0.70;;;;;;;;;;4974843;28;20261;-72
2023/07/30 19:18:10;;;;;;;0.60;0.60;;;;;;;;;;4974850;28;20679;-71
2023/07/30 19:20:37;;;;;;;1.55;0.82;;;;;;;;;;4974949;28;20666;-70
2023/07/30 19:23:04;;;;;;;0.73;0.63;;;;;;;;;;4975112;28;20278;-70
2023/07/30 19:25:31;;;;;;;0.77;0.77;;;;;;;;;;4975062;28;20227;-70
2023/07/30 19:27:58;;;;;;;0.82;0.82;;;;;;;;;;4975075;28;20218;-70
2023/07/30 19:30:26;;;;;;;1.00;1.00;;;;;;;;;;4975029;28;20210;-72
2023/07/30 19:32:53;;;;;;;0.90;0.90;;;;;;;;;;4975482;28;20306;-72
2023/07/30 19:35:22;;;;;;;0.70;0.70;;;;;;;;;;4975044;28;20219;-70
2023/07/30 19:37:49;;;;;;;0.70;0.70;;;;;;;;;;4975004;28;20200;-70
2023/07/30 19:40:16;;;;;;;0.80;0.80;;;;;;;;;;4975102;28;20213;-72
2023/07/30 19:42:43;;;;;;;0.80;0.80;;;;;;;;;;4974793;28;20248;-71
2023/07/30 19:45:10;;;;;;;0.90;0.90;;;;;;;;;;4974699;28;20230;-71
2023/07/30 19:47:37;;;;;;;0.95;0.95;;;;;;;;;;4974902;28;20203;-71
2023/07/30 19:50:05;;;;;;;1.35;0.80;;;;;;;;;;4975025;28;20191;-71
2023/07/30 19:52:33;;;;;;;0.90;0.90;;;;;;;;;;4974568;28;20195;-72
2023/07/30 19:55:00;;;;;;;0.82;0.65;;;;;;;;;;4974757;28;20239;-69
2023/07/30 19:57:28;;;;;;;0.70;0.70;;;;;;;;;;4974895;28;20212;-71
2023/07/30 19:59:55;;;;;;;0.82;0.82;;;;;;;;;;4974562;28;20306;-71
2023/07/30 20:02:22;;;;;;;0.85;0.85;;;;;;;;;;4974738;28;20219;-70
2023/07/30 20:04:49;;;;;;;0.98;0.95;;;;;;;;;;4974598;28;20227;-70
2023/07/30 20:07:17;;;;;;;0.70;0.70;;;;;;;;;;4974550;28;20219;-71
2023/07/30 20:09:45;;;;;;;0.73;0.73;;;;;;;;;;4974234;28;20610;-71
2023/07/30 20:12:12;;;;;;;0.50;0.50;;;;;;;;;;4974191;28;20202;-70
2023/07/30 20:14:39;;;;;;;0.70;0.70;;;;;;;;;;4974238;28;20242;-69
2023/07/30 20:17:06;;;;;;;0.95;0.77;;;;;;;;;;4974403;28;20231;-69
2023/07/30 20:19:33;;;;;;;0.85;0.85;;;;;;;;;;4974123;28;20621;-70
2023/07/30 20:22:00;;;;;;;1.27;1.02;;;;;;;;;;4974568;28;20223;-69
2023/07/30 20:24:29;;;;;;;0.82;0.82;;;;;;;;;;4974257;28;20208;-69
2023/07/30 20:26:57;;;;;;;0.75;0.70;;;;;;;;;;4974344;28;20606;-69
2023/07/30 20:29:24;;;;;;;0.88;0.88;;;;;;;;;;4978005;28;20206;-70